sensor_id;sensor_type;location;lat;lon;timestamp;P1;durP1;ratioP1;P2;durP2;ratioP2
23716;SDS011;22094;52.130;5.598;2024-03-23T00:53:12;64.78;;;24.23;;
23716;SDS011;22094;52.130;5.598;2024-03-23T00:55:40;74.30;;;24.77;;
23716;SDS011;22094;52.130;5.598;2024-03-23T00:58:06;60.65;;;24.65;;
23716;SDS011;22094;52.130;5.598;2024-03-23T01:00:31;66.80;;;24.80;;
23716;SDS011;22094;52.130;5.598;2024-03-23T01:02:57;60.10;;;24.80;;
23716;SDS011;22094;52.130;5.598;2024-03-23T01:05:22;74.03;;;25.33;;
23716;SDS011;22094;52.130;5.598;2024-03-23T01:07:48;71.13;;;25.67;;
23716;SDS011;22094;52.130;5.598;2024-03-23T01:10:13;67.05;;;24.88;;
23716;SDS011;22094;52.130;5.598;2024-03-23T01:12:39;58.53;;;24.52;;
23716;SDS011;22094;52.130;5.598;2024-03-23T01:15:05;61.38;;;25.02;;
23716;SDS011;22094;52.130;5.598;2024-03-23T01:17:31;69.65;;;26.02;;
23716;SDS011;22094;52.130;5.598;2024-03-23T01:19:56;64.97;;;26.20;;
23716;SDS011;22094;52.130;5.598;2024-03-23T01:22:22;67.68;;;25.15;;
23716;SDS011;22094;52.130;5.598;2024-03-23T01:24:48;70.60;;;24.95;;
23716;SDS011;22094;52.130;5.598;2024-03-23T01:27:13;64.45;;;24.73;;
23716;SDS011;22094;52.130;5.598;2024-03-23T01:29:39;63.30;;;24.52;;
23716;SDS011;22094;52.130;5.598;2024-03-23T01:32:05;70.72;;;25.08;;
23716;SDS011;22094;52.130;5.598;2024-03-23T01:34:31;62.65;;;25.15;;
23716;SDS011;22094;52.130;5.598;2024-03-23T01:36:57;72.35;;;25.52;;
23716;SDS011;22094;52.130;5.598;2024-03-23T01:39:25;66.75;;;25.15;;
23716;SDS011;22094;52.130;5.598;2024-03-23T01:41:51;73.70;;;25.42;;
23716;SDS011;22094;52.130;5.598;2024-03-23T01:44:16;70.00;;;24.60;;
23716;SDS011;22094;52.130;5.598;2024-03-23T01:46:42;67.85;;;24.05;;
23716;SDS011;22094;52.130;5.598;2024-03-23T01:49:14;65.63;;;24.65;;
23716;SDS011;22094;52.130;5.598;2024-03-23T01:51:41;77.47;;;26.60;;
23716;SDS011;22094;52.130;5.598;2024-03-23T01:54:07;60.53;;;25.08;;
23716;SDS011;22094;52.130;5.598;2024-03-23T01:56:33;72.18;;;23.58;;
23716;SDS011;22094;52.130;5.598;2024-03-23T01:59:02;66.00;;;23.08;;
23716;SDS011;22094;52.130;5.598;2024-03-23T02:01:28;66.18;;;23.52;;
23716;SDS011;22094;52.130;5.598;2024-03-23T02:03:54;62.15;;;23.35;;
23716;SDS011;22094;52.130;5.598;2024-03-23T02:06:19;84.05;;;24.83;;
23716;SDS011;22094;52.130;5.598;2024-03-23T02:08:45;64.47;;;23.10;;
23716;SDS011;22094;52.130;5.598;2024-03-23T02:11:10;65.35;;;23.30;;
23716;SDS011;22094;52.130;5.598;2024-03-23T02:13:36;64.97;;;23.05;;
23716;SDS011;22094;52.130;5.598;2024-03-23T02:16:02;68.43;;;25.10;;
23716;SDS011;22094;52.130;5.598;2024-03-23T02:18:27;54.85;;;21.35;;
23716;SDS011;22094;52.130;5.598;2024-03-23T02:20:53;63.38;;;23.13;;
23716;SDS011;22094;52.130;5.598;2024-03-23T02:23:18;63.63;;;23.92;;
23716;SDS011;22094;52.130;5.598;2024-03-23T02:25:45;62.33;;;22.42;;
23716;SDS011;22094;52.130;5.598;2024-03-23T02:28:10;65.38;;;22.17;;
23716;SDS011;22094;52.130;5.598;2024-03-23T02:30:36;74.85;;;24.27;;
23716;SDS011;22094;52.130;5.598;2024-03-23T02:33:02;63.45;;;23.27;;
23716;SDS011;22094;52.130;5.598;2024-03-23T02:35:28;66.25;;;24.15;;
23716;SDS011;22094;52.130;5.598;2024-03-23T02:37:53;60.35;;;23.35;;
23716;SDS011;22094;52.130;5.598;2024-03-23T02:40:21;66.80;;;23.88;;
23716;SDS011;22094;52.130;5.598;2024-03-23T02:42:47;68.63;;;22.80;;
23716;SDS011;22094;52.130;5.598;2024-03-23T02:45:13;70.57;;;25.10;;
23716;SDS011;22094;52.130;5.598;2024-03-23T02:47:38;68.00;;;24.05;;
23716;SDS011;22094;52.130;5.598;2024-03-23T02:50:04;60.40;;;23.45;;
23716;SDS011;22094;52.130;5.598;2024-03-23T02:52:30;71.47;;;24.65;;
23716;SDS011;22094;52.130;5.598;2024-03-23T02:54:56;70.88;;;25.27;;
23716;SDS011;22094;52.130;5.598;2024-03-23T02:57:22;72.28;;;25.42;;
23716;SDS011;22094;52.130;5.598;2024-03-23T02:59:47;59.85;;;25.23;;
23716;SDS011;22094;52.130;5.598;2024-03-23T03:02:13;77.15;;;25.17;;
23716;SDS011;22094;52.130;5.598;2024-03-23T03:04:38;64.28;;;25.48;;
23716;SDS011;22094;52.130;5.598;2024-03-23T03:07:04;69.75;;;25.55;;
23716;SDS011;22094;52.130;5.598;2024-03-23T03:09:30;69.72;;;25.75;;
23716;SDS011;22094;52.130;5.598;2024-03-23T03:11:55;63.70;;;25.30;;
23716;SDS011;22094;52.130;5.598;2024-03-23T03:14:21;70.18;;;25.42;;
23716;SDS011;22094;52.130;5.598;2024-03-23T03:16:47;74.05;;;25.85;;
23716;SDS011;22094;52.130;5.598;2024-03-23T03:19:13;83.28;;;27.60;;
23716;SDS011;22094;52.130;5.598;2024-03-23T03:21:38;73.90;;;27.65;;
23716;SDS011;22094;52.130;5.598;2024-03-23T03:24:05;73.85;;;26.30;;
23716;SDS011;22094;52.130;5.598;2024-03-23T03:26:31;75.32;;;26.42;;
23716;SDS011;22094;52.130;5.598;2024-03-23T03:28:57;76.35;;;26.75;;
23716;SDS011;22094;52.130;5.598;2024-03-23T03:31:22;63.05;;;25.30;;
23716;SDS011;22094;52.130;5.598;2024-03-23T03:33:49;71.05;;;25.73;;
23716;SDS011;22094;52.130;5.598;2024-03-23T03:36:15;65.13;;;24.65;;
23716;SDS011;22094;52.130;5.598;2024-03-23T03:38:41;75.18;;;24.63;;
23716;SDS011;22094;52.130;5.598;2024-03-23T03:41:06;76.78;;;25.20;;
23716;SDS011;22094;52.130;5.598;2024-03-23T03:43:32;67.82;;;25.02;;
23716;SDS011;22094;52.130;5.598;2024-03-23T03:45:58;66.82;;;24.70;;
23716;SDS011;22094;52.130;5.598;2024-03-23T03:48:24;71.05;;;24.77;;
23716;SDS011;22094;52.130;5.598;2024-03-23T03:50:50;76.82;;;25.35;;
23716;SDS011;22094;52.130;5.598;2024-03-23T03:53:16;61.15;;;23.98;;
23716;SDS011;22094;52.130;5.598;2024-03-23T03:55:42;80.40;;;25.95;;
23716;SDS011;22094;52.130;5.598;2024-03-23T03:58:07;76.30;;;24.67;;
23716;SDS011;22094;52.130;5.598;2024-03-23T04:00:33;79.30;;;26.45;;
23716;SDS011;22094;52.130;5.598;2024-03-23T04:02:59;69.72;;;24.98;;
23716;SDS011;22094;52.130;5.598;2024-03-23T04:05:24;67.72;;;24.60;;
23716;SDS011;22094;52.130;5.598;2024-03-23T04:07:50;70.65;;;25.45;;
23716;SDS011;22094;52.130;5.598;2024-03-23T04:10:15;74.72;;;24.17;;
23716;SDS011;22094;52.130;5.598;2024-03-23T04:12:41;70.60;;;22.90;;
23716;SDS011;22094;52.130;5.598;2024-03-23T04:15:08;65.28;;;23.25;;
23716;SDS011;22094;52.130;5.598;2024-03-23T04:17:33;63.15;;;22.17;;
23716;SDS011;22094;52.130;5.598;2024-03-23T04:20:00;56.15;;;21.25;;
23716;SDS011;22094;52.130;5.598;2024-03-23T04:22:26;56.58;;;21.65;;
23716;SDS011;22094;52.130;5.598;2024-03-23T04:24:58;63.40;;;21.30;;
23716;SDS011;22094;52.130;5.598;2024-03-23T04:27:23;61.80;;;21.83;;
23716;SDS011;22094;52.130;5.598;2024-03-23T04:29:50;58.33;;;21.98;;
23716;SDS011;22094;52.130;5.598;2024-03-23T04:32:16;66.10;;;23.45;;
23716;SDS011;22094;52.130;5.598;2024-03-23T04:34:42;67.88;;;22.67;;
23716;SDS011;22094;52.130;5.598;2024-03-23T04:37:08;60.03;;;21.88;;
23716;SDS011;22094;52.130;5.598;2024-03-23T04:39:35;68.95;;;23.00;;
23716;SDS011;22094;52.130;5.598;2024-03-23T04:42:01;62.35;;;22.55;;
23716;SDS011;22094;52.130;5.598;2024-03-23T04:44:27;61.72;;;21.55;;
23716;SDS011;22094;52.130;5.598;2024-03-23T04:46:53;65.13;;;22.90;;
23716;SDS011;22094;52.130;5.598;2024-03-23T04:49:19;71.45;;;22.42;;
23716;SDS011;22094;52.130;5.598;2024-03-23T04:51:44;52.45;;;21.63;;
23716;SDS011;22094;52.130;5.598;2024-03-23T04:54:14;58.03;;;20.20;;
23716;SDS011;22094;52.130;5.598;2024-03-23T04:56:40;56.08;;;19.67;;
23716;SDS011;22094;52.130;5.598;2024-03-23T05:02:26;47.53;;;17.80;;
23716;SDS011;22094;52.130;5.598;2024-03-23T05:04:52;54.78;;;18.38;;
23716;SDS011;22094;52.130;5.598;2024-03-23T05:07:18;50.92;;;17.52;;
23716;SDS011;22094;52.130;5.598;2024-03-23T05:09:43;53.95;;;17.10;;
23716;SDS011;22094;52.130;5.598;2024-03-23T05:12:09;46.42;;;15.77;;
23716;SDS011;22094;52.130;5.598;2024-03-23T05:14:34;41.53;;;15.10;;
23716;SDS011;22094;52.130;5.598;2024-03-23T05:17:00;42.10;;;13.88;;
23716;SDS011;22094;52.130;5.598;2024-03-23T05:19:25;59.40;;;14.27;;
23716;SDS011;22094;52.130;5.598;2024-03-23T05:21:51;50.25;;;12.65;;
23716;SDS011;22094;52.130;5.598;2024-03-23T05:24:18;38.67;;;10.60;;
23716;SDS011;22094;52.130;5.598;2024-03-23T05:26:43;35.72;;;10.68;;
23716;SDS011;22094;52.130;5.598;2024-03-23T05:29:09;37.83;;;9.95;;
23716;SDS011;22094;52.130;5.598;2024-03-23T05:31:38;41.30;;;10.50;;
23716;SDS011;22094;52.130;5.598;2024-03-23T05:34:05;39.80;;;10.00;;
23716;SDS011;22094;52.130;5.598;2024-03-23T05:36:30;38.17;;;9.55;;
23716;SDS011;22094;52.130;5.598;2024-03-23T05:38:57;36.20;;;9.43;;
23716;SDS011;22094;52.130;5.598;2024-03-23T05:41:23;32.63;;;9.18;;
23716;SDS011;22094;52.130;5.598;2024-03-23T05:43:49;38.10;;;11.07;;
23716;SDS011;22094;52.130;5.598;2024-03-23T05:46:14;36.67;;;9.88;;
23716;SDS011;22094;52.130;5.598;2024-03-23T05:48:40;26.73;;;9.38;;
23716;SDS011;22094;52.130;5.598;2024-03-23T05:51:05;35.25;;;10.35;;
23716;SDS011;22094;52.130;5.598;2024-03-23T05:53:31;26.60;;;9.00;;
23716;SDS011;22094;52.130;5.598;2024-03-23T05:56:01;32.45;;;9.60;;
23716;SDS011;22094;52.130;5.598;2024-03-23T05:58:31;41.67;;;9.70;;
23716;SDS011;22094;52.130;5.598;2024-03-23T06:00:57;32.90;;;9.63;;
23716;SDS011;22094;52.130;5.598;2024-03-23T06:03:24;30.83;;;10.00;;
23716;SDS011;22094;52.130;5.598;2024-03-23T06:05:50;31.45;;;9.80;;
23716;SDS011;22094;52.130;5.598;2024-03-23T06:08:16;33.97;;;9.30;;
23716;SDS011;22094;52.130;5.598;2024-03-23T06:10:41;27.75;;;8.50;;
23716;SDS011;22094;52.130;5.598;2024-03-23T06:13:07;29.10;;;8.60;;
23716;SDS011;22094;52.130;5.598;2024-03-23T06:15:33;26.98;;;8.52;;
23716;SDS011;22094;52.130;5.598;2024-03-23T06:18:02;33.22;;;8.15;;
23716;SDS011;22094;52.130;5.598;2024-03-23T06:20:28;29.42;;;7.10;;
23716;SDS011;22094;52.130;5.598;2024-03-23T06:22:54;29.20;;;7.47;;
23716;SDS011;22094;52.130;5.598;2024-03-23T06:25:19;27.13;;;6.40;;
23716;SDS011;22094;52.130;5.598;2024-03-23T06:27:45;23.10;;;6.30;;
23716;SDS011;22094;52.130;5.598;2024-03-23T06:30:11;26.73;;;5.97;;
23716;SDS011;22094;52.130;5.598;2024-03-23T06:32:37;30.10;;;6.55;;
23716;SDS011;22094;52.130;5.598;2024-03-23T06:35:02;21.63;;;6.28;;
23716;SDS011;22094;52.130;5.598;2024-03-23T06:37:33;21.10;;;5.32;;
23716;SDS011;22094;52.130;5.598;2024-03-23T06:39:59;21.55;;;5.68;;
23716;SDS011;22094;52.130;5.598;2024-03-23T06:42:24;23.95;;;6.00;;
23716;SDS011;22094;52.130;5.598;2024-03-23T06:44:50;16.23;;;5.30;;
23716;SDS011;22094;52.130;5.598;2024-03-23T06:47:15;28.98;;;6.25;;
23716;SDS011;22094;52.130;5.598;2024-03-23T06:49:41;20.98;;;5.75;;
23716;SDS011;22094;52.130;5.598;2024-03-23T06:52:07;22.98;;;6.05;;
23716;SDS011;22094;52.130;5.598;2024-03-23T06:54:32;18.38;;;5.65;;
23716;SDS011;22094;52.130;5.598;2024-03-23T06:56:58;20.00;;;5.93;;
23716;SDS011;22094;52.130;5.598;2024-03-23T06:59:24;27.48;;;6.05;;
23716;SDS011;22094;52.130;5.598;2024-03-23T07:01:49;23.50;;;6.45;;
23716;SDS011;22094;52.130;5.598;2024-03-23T07:04:15;25.80;;;5.72;;
23716;SDS011;22094;52.130;5.598;2024-03-23T07:06:44;22.52;;;5.28;;
23716;SDS011;22094;52.130;5.598;2024-03-23T07:09:10;21.05;;;5.38;;
23716;SDS011;22094;52.130;5.598;2024-03-23T07:11:36;17.38;;;5.82;;
23716;SDS011;22094;52.130;5.598;2024-03-23T07:14:01;19.20;;;6.22;;
23716;SDS011;22094;52.130;5.598;2024-03-23T07:16:28;20.10;;;6.28;;
23716;SDS011;22094;52.130;5.598;2024-03-23T07:18:53;20.48;;;6.38;;
23716;SDS011;22094;52.130;5.598;2024-03-23T07:21:19;17.65;;;5.07;;
23716;SDS011;22094;52.130;5.598;2024-03-23T07:23:45;20.73;;;5.55;;
23716;SDS011;22094;52.130;5.598;2024-03-23T07:26:10;20.52;;;5.57;;
23716;SDS011;22094;52.130;5.598;2024-03-23T07:28:36;17.92;;;5.60;;
23716;SDS011;22094;52.130;5.598;2024-03-23T07:31:13;19.17;;;6.55;;
23716;SDS011;22094;52.130;5.598;2024-03-23T07:33:48;19.35;;;5.93;;
23716;SDS011;22094;52.130;5.598;2024-03-23T07:36:16;23.88;;;7.07;;
23716;SDS011;22094;52.130;5.598;2024-03-23T07:38:42;15.35;;;5.93;;
23716;SDS011;22094;52.130;5.598;2024-03-23T07:41:12;19.00;;;6.97;;
23716;SDS011;22094;52.130;5.598;2024-03-23T07:43:42;16.48;;;5.78;;
23716;SDS011;22094;52.130;5.598;2024-03-23T07:46:08;22.35;;;6.22;;
23716;SDS011;22094;52.130;5.598;2024-03-23T07:48:34;18.88;;;5.97;;
23716;SDS011;22094;52.130;5.598;2024-03-23T07:51:00;17.00;;;5.80;;
23716;SDS011;22094;52.130;5.598;2024-03-23T07:53:27;20.42;;;5.60;;
23716;SDS011;22094;52.130;5.598;2024-03-23T07:56:06;14.25;;;5.78;;
23716;SDS011;22094;52.130;5.598;2024-03-23T07:58:33;16.20;;;5.43;;
23716;SDS011;22094;52.130;5.598;2024-03-23T08:01:05;14.75;;;4.90;;
23716;SDS011;22094;52.130;5.598;2024-03-23T08:03:36;15.27;;;4.97;;
23716;SDS011;22094;52.130;5.598;2024-03-23T08:08:38;14.70;;;4.60;;
23716;SDS011;22094;52.130;5.598;2024-03-23T08:11:05;10.93;;;3.60;;
23716;SDS011;22094;52.130;5.598;2024-03-23T08:13:31;15.80;;;4.38;;
23716;SDS011;22094;52.130;5.598;2024-03-23T08:15:57;15.13;;;3.30;;
23716;SDS011;22094;52.130;5.598;2024-03-23T08:18:24;12.07;;;3.75;;
23716;SDS011;22094;52.130;5.598;2024-03-23T08:20:57;14.30;;;3.63;;
23716;SDS011;22094;52.130;5.598;2024-03-23T08:23:33;15.73;;;3.78;;
23716;SDS011;22094;52.130;5.598;2024-03-23T08:26:02;10.52;;;3.63;;
23716;SDS011;22094;52.130;5.598;2024-03-23T08:28:28;8.15;;;3.15;;
23716;SDS011;22094;52.130;5.598;2024-03-23T08:30:54;12.13;;;3.20;;
23716;SDS011;22094;52.130;5.598;2024-03-23T08:33:21;11.18;;;3.08;;
23716;SDS011;22094;52.130;5.598;2024-03-23T08:35:55;9.70;;;2.63;;
23716;SDS011;22094;52.130;5.598;2024-03-23T08:38:28;7.60;;;2.67;;
23716;SDS011;22094;52.130;5.598;2024-03-23T08:43:49;11.02;;;2.40;;
23716;SDS011;22094;52.130;5.598;2024-03-23T08:46:15;11.48;;;2.58;;
23716;SDS011;22094;52.130;5.598;2024-03-23T08:48:42;12.27;;;2.75;;
23716;SDS011;22094;52.130;5.598;2024-03-23T08:51:14;9.00;;;2.60;;
23716;SDS011;22094;52.130;5.598;2024-03-23T08:53:41;9.20;;;2.60;;
23716;SDS011;22094;52.130;5.598;2024-03-23T08:56:07;12.45;;;2.88;;
23716;SDS011;22094;52.130;5.598;2024-03-23T08:58:34;8.63;;;2.08;;
23716;SDS011;22094;52.130;5.598;2024-03-23T09:01:08;12.93;;;2.67;;
23716;SDS011;22094;52.130;5.598;2024-03-23T09:03:35;9.48;;;2.25;;
23716;SDS011;22094;52.130;5.598;2024-03-23T09:06:11;11.95;;;2.47;;
23716;SDS011;22094;52.130;5.598;2024-03-23T09:08:37;11.10;;;1.98;;
23716;SDS011;22094;52.130;5.598;2024-03-23T09:11:04;9.02;;;2.33;;
23716;SDS011;22094;52.130;5.598;2024-03-23T09:13:34;9.50;;;2.20;;
23716;SDS011;22094;52.130;5.598;2024-03-23T09:16:01;14.82;;;3.30;;
23716;SDS011;22094;52.130;5.598;2024-03-23T09:18:27;8.82;;;2.38;;
23716;SDS011;22094;52.130;5.598;2024-03-23T09:20:52;9.52;;;2.45;;
23716;SDS011;22094;52.130;5.598;2024-03-23T09:23:19;9.70;;;2.08;;
23716;SDS011;22094;52.130;5.598;2024-03-23T09:25:45;10.75;;;2.25;;
23716;SDS011;22094;52.130;5.598;2024-03-23T09:28:11;9.38;;;2.13;;
23716;SDS011;22094;52.130;5.598;2024-03-23T09:30:37;8.18;;;1.95;;
23716;SDS011;22094;52.130;5.598;2024-03-23T09:33:12;9.25;;;1.83;;
23716;SDS011;22094;52.130;5.598;2024-03-23T09:35:38;9.93;;;2.17;;
23716;SDS011;22094;52.130;5.598;2024-03-23T09:38:05;13.07;;;3.03;;
23716;SDS011;22094;52.130;5.598;2024-03-23T09:40:32;10.13;;;2.88;;
23716;SDS011;22094;52.130;5.598;2024-03-23T09:42:58;9.98;;;2.42;;
23716;SDS011;22094;52.130;5.598;2024-03-23T09:45:27;8.05;;;2.42;;
23716;SDS011;22094;52.130;5.598;2024-03-23T09:47:56;6.82;;;2.17;;
23716;SDS011;22094;52.130;5.598;2024-03-23T09:50:22;9.32;;;2.58;;
23716;SDS011;22094;52.130;5.598;2024-03-23T09:52:48;7.18;;;2.00;;
23716;SDS011;22094;52.130;5.598;2024-03-23T09:55:14;8.75;;;3.00;;
23716;SDS011;22094;52.130;5.598;2024-03-23T09:57:40;7.95;;;2.28;;
23716;SDS011;22094;52.130;5.598;2024-03-23T10:00:06;14.77;;;3.22;;
23716;SDS011;22094;52.130;5.598;2024-03-23T10:02:33;10.75;;;2.55;;
23716;SDS011;22094;52.130;5.598;2024-03-23T10:05:00;5.63;;;1.70;;
23716;SDS011;22094;52.130;5.598;2024-03-23T10:07:25;5.28;;;1.77;;
23716;SDS011;22094;52.130;5.598;2024-03-23T10:09:55;4.97;;;1.60;;
23716;SDS011;22094;52.130;5.598;2024-03-23T10:12:21;5.10;;;1.60;;
23716;SDS011;22094;52.130;5.598;2024-03-23T10:14:48;8.38;;;2.60;;
23716;SDS011;22094;52.130;5.598;2024-03-23T10:17:18;8.18;;;2.38;;
23716;SDS011;22094;52.130;5.598;2024-03-23T10:19:44;11.88;;;2.63;;
23716;SDS011;22094;52.130;5.598;2024-03-23T10:22:17;8.18;;;2.90;;
23716;SDS011;22094;52.130;5.598;2024-03-23T10:24:44;8.20;;;2.92;;
23716;SDS011;22094;52.130;5.598;2024-03-23T10:27:14;11.07;;;3.33;;
23716;SDS011;22094;52.130;5.598;2024-03-23T10:29:42;10.48;;;2.75;;
23716;SDS011;22094;52.130;5.598;2024-03-23T10:32:09;11.30;;;2.58;;
23716;SDS011;22094;52.130;5.598;2024-03-23T10:34:39;8.82;;;2.58;;
23716;SDS011;22094;52.130;5.598;2024-03-23T10:37:05;8.25;;;2.30;;
23716;SDS011;22094;52.130;5.598;2024-03-23T10:39:32;9.50;;;2.40;;
23716;SDS011;22094;52.130;5.598;2024-03-23T10:42:00;11.02;;;2.28;;
23716;SDS011;22094;52.130;5.598;2024-03-23T10:44:28;8.35;;;2.28;;
23716;SDS011;22094;52.130;5.598;2024-03-23T10:46:55;15.32;;;2.72;;
23716;SDS011;22094;52.130;5.598;2024-03-23T10:49:34;10.70;;;2.60;;
23716;SDS011;22094;52.130;5.598;2024-03-23T10:52:01;12.30;;;2.85;;
23716;SDS011;22094;52.130;5.598;2024-03-23T10:54:29;10.68;;;2.50;;
23716;SDS011;22094;52.130;5.598;2024-03-23T10:59:40;10.30;;;1.80;;
23716;SDS011;22094;52.130;5.598;2024-03-23T11:02:06;9.30;;;2.38;;
23716;SDS011;22094;52.130;5.598;2024-03-23T11:04:37;12.90;;;2.63;;
23716;SDS011;22094;52.130;5.598;2024-03-23T11:07:28;9.77;;;2.10;;
23716;SDS011;22094;52.130;5.598;2024-03-23T11:09:49;8.48;;;1.98;;
23716;SDS011;22094;52.130;5.598;2024-03-23T11:14:48;9.50;;;2.00;;
23716;SDS011;22094;52.130;5.598;2024-03-23T11:17:19;6.45;;;2.10;;
23716;SDS011;22094;52.130;5.598;2024-03-23T11:19:58;5.63;;;1.88;;
23716;SDS011;22094;52.130;5.598;2024-03-23T11:25:03;10.57;;;2.72;;
23716;SDS011;22094;52.130;5.598;2024-03-23T11:27:37;10.30;;;2.20;;
23716;SDS011;22094;52.130;5.598;2024-03-23T11:30:15;7.45;;;2.10;;
23716;SDS011;22094;52.130;5.598;2024-03-23T11:32:43;8.65;;;2.10;;
23716;SDS011;22094;52.130;5.598;2024-03-23T11:35:09;9.75;;;2.15;;
23716;SDS011;22094;52.130;5.598;2024-03-23T11:37:36;10.25;;;2.38;;
23716;SDS011;22094;52.130;5.598;2024-03-23T11:40:17;8.23;;;2.45;;
23716;SDS011;22094;52.130;5.598;2024-03-23T11:42:44;7.93;;;2.15;;
23716;SDS011;22094;52.130;5.598;2024-03-23T11:45:09;10.60;;;2.20;;
23716;SDS011;22094;52.130;5.598;2024-03-23T11:47:35;11.95;;;2.95;;
23716;SDS011;22094;52.130;5.598;2024-03-23T11:50:01;12.70;;;2.60;;
23716;SDS011;22094;52.130;5.598;2024-03-23T11:52:27;11.20;;;2.45;;
23716;SDS011;22094;52.130;5.598;2024-03-23T11:55:02;9.18;;;2.20;;
23716;SDS011;22094;52.130;5.598;2024-03-23T11:57:28;13.52;;;2.60;;
23716;SDS011;22094;52.130;5.598;2024-03-23T11:59:54;10.30;;;2.90;;
23716;SDS011;22094;52.130;5.598;2024-03-23T12:02:20;8.02;;;1.90;;
23716;SDS011;22094;52.130;5.598;2024-03-23T12:04:46;10.48;;;2.30;;
23716;SDS011;22094;52.130;5.598;2024-03-23T12:07:18;4.80;;;1.55;;
23716;SDS011;22094;52.130;5.598;2024-03-23T12:09:46;6.82;;;1.77;;
23716;SDS011;22094;52.130;5.598;2024-03-23T12:12:18;8.27;;;1.95;;
23716;SDS011;22094;52.130;5.598;2024-03-23T12:14:44;8.18;;;2.10;;
23716;SDS011;22094;52.130;5.598;2024-03-23T12:17:14;9.20;;;2.28;;
23716;SDS011;22094;52.130;5.598;2024-03-23T12:19:40;9.50;;;1.90;;
23716;SDS011;22094;52.130;5.598;2024-03-23T12:22:07;10.43;;;2.55;;
23716;SDS011;22094;52.130;5.598;2024-03-23T12:24:33;9.77;;;2.22;;
23716;SDS011;22094;52.130;5.598;2024-03-23T12:27:03;12.65;;;2.60;;
23716;SDS011;22094;52.130;5.598;2024-03-23T12:29:33;9.60;;;2.20;;
23716;SDS011;22094;52.130;5.598;2024-03-23T12:31:59;6.65;;;2.13;;
23716;SDS011;22094;52.130;5.598;2024-03-23T12:34:26;8.90;;;2.15;;
23716;SDS011;22094;52.130;5.598;2024-03-23T12:36:52;9.98;;;2.40;;
23716;SDS011;22094;52.130;5.598;2024-03-23T12:39:18;11.20;;;2.33;;
23716;SDS011;22094;52.130;5.598;2024-03-23T12:41:45;7.25;;;2.20;;
23716;SDS011;22094;52.130;5.598;2024-03-23T12:44:11;9.35;;;2.30;;
23716;SDS011;22094;52.130;5.598;2024-03-23T12:46:37;10.77;;;2.33;;
23716;SDS011;22094;52.130;5.598;2024-03-23T12:49:03;11.85;;;2.28;;
23716;SDS011;22094;52.130;5.598;2024-03-23T12:51:29;6.60;;;2.45;;
23716;SDS011;22094;52.130;5.598;2024-03-23T12:53:55;9.93;;;2.30;;
23716;SDS011;22094;52.130;5.598;2024-03-23T12:56:20;9.45;;;2.58;;
23716;SDS011;22094;52.130;5.598;2024-03-23T12:58:46;16.45;;;2.50;;
23716;SDS011;22094;52.130;5.598;2024-03-23T13:01:16;7.75;;;1.95;;
23716;SDS011;22094;52.130;5.598;2024-03-23T13:03:42;6.43;;;1.90;;
23716;SDS011;22094;52.130;5.598;2024-03-23T13:06:09;8.57;;;2.25;;
23716;SDS011;22094;52.130;5.598;2024-03-23T13:08:35;12.57;;;2.20;;
23716;SDS011;22094;52.130;5.598;2024-03-23T13:11:00;9.63;;;1.83;;
23716;SDS011;22094;52.130;5.598;2024-03-23T13:13:26;7.97;;;2.00;;
23716;SDS011;22094;52.130;5.598;2024-03-23T13:15:52;9.95;;;2.17;;
23716;SDS011;22094;52.130;5.598;2024-03-23T13:18:17;10.88;;;2.17;;
23716;SDS011;22094;52.130;5.598;2024-03-23T13:20:43;10.05;;;2.63;;
23716;SDS011;22094;52.130;5.598;2024-03-23T13:23:09;10.88;;;2.35;;
23716;SDS011;22094;52.130;5.598;2024-03-23T13:25:34;7.78;;;1.88;;
23716;SDS011;22094;52.130;5.598;2024-03-23T13:28:01;8.45;;;2.05;;
23716;SDS011;22094;52.130;5.598;2024-03-23T13:30:27;11.75;;;2.35;;
23716;SDS011;22094;52.130;5.598;2024-03-23T13:32:52;12.07;;;2.30;;
23716;SDS011;22094;52.130;5.598;2024-03-23T13:35:18;5.07;;;2.10;;
23716;SDS011;22094;52.130;5.598;2024-03-23T13:37:44;8.55;;;2.30;;
23716;SDS011;22094;52.130;5.598;2024-03-23T13:40:10;7.90;;;1.77;;
23716;SDS011;22094;52.130;5.598;2024-03-23T13:42:36;2.80;;;1.20;;
23716;SDS011;22094;52.130;5.598;2024-03-23T13:45:02;2.45;;;1.00;;
23716;SDS011;22094;52.130;5.598;2024-03-23T13:47:28;2.75;;;1.02;;
23716;SDS011;22094;52.130;5.598;2024-03-23T13:49:54;2.90;;;1.60;;
23716;SDS011;22094;52.130;5.598;2024-03-23T13:52:19;3.92;;;1.35;;
23716;SDS011;22094;52.130;5.598;2024-03-23T13:54:47;4.13;;;1.70;;
23716;SDS011;22094;52.130;5.598;2024-03-23T13:57:13;3.20;;;1.15;;
23716;SDS011;22094;52.130;5.598;2024-03-23T13:59:39;5.13;;;1.40;;
23716;SDS011;22094;52.130;5.598;2024-03-23T14:02:05;6.90;;;1.70;;
23716;SDS011;22094;52.130;5.598;2024-03-23T14:04:30;4.25;;;1.50;;
23716;SDS011;22094;52.130;5.598;2024-03-23T14:06:56;4.65;;;1.30;;
23716;SDS011;22094;52.130;5.598;2024-03-23T14:09:23;7.13;;;1.63;;
23716;SDS011;22094;52.130;5.598;2024-03-23T14:11:50;6.03;;;2.00;;
23716;SDS011;22094;52.130;5.598;2024-03-23T14:14:16;7.78;;;1.75;;
23716;SDS011;22094;52.130;5.598;2024-03-23T14:16:45;7.57;;;2.10;;
23716;SDS011;22094;52.130;5.598;2024-03-23T14:19:10;7.13;;;1.88;;
23716;SDS011;22094;52.130;5.598;2024-03-23T14:21:36;8.48;;;1.77;;
23716;SDS011;22094;52.130;5.598;2024-03-23T14:24:03;6.93;;;1.83;;
23716;SDS011;22094;52.130;5.598;2024-03-23T14:26:29;9.02;;;2.05;;
23716;SDS011;22094;52.130;5.598;2024-03-23T14:28:54;8.57;;;1.92;;
23716;SDS011;22094;52.130;5.598;2024-03-23T14:31:20;7.20;;;2.05;;
23716;SDS011;22094;52.130;5.598;2024-03-23T14:33:45;6.57;;;1.85;;
23716;SDS011;22094;52.130;5.598;2024-03-23T14:36:15;7.90;;;1.75;;
23716;SDS011;22094;52.130;5.598;2024-03-23T14:38:47;7.60;;;2.75;;
23716;SDS011;22094;52.130;5.598;2024-03-23T14:41:13;8.25;;;2.60;;
23716;SDS011;22094;52.130;5.598;2024-03-23T14:43:39;10.60;;;2.50;;
23716;SDS011;22094;52.130;5.598;2024-03-23T14:46:11;9.02;;;1.73;;
23716;SDS011;22094;52.130;5.598;2024-03-23T14:48:40;7.38;;;1.80;;
23716;SDS011;22094;52.130;5.598;2024-03-23T14:51:07;6.38;;;1.65;;
23716;SDS011;22094;52.130;5.598;2024-03-23T14:53:34;8.55;;;2.50;;
23716;SDS011;22094;52.130;5.598;2024-03-23T14:56:00;8.32;;;1.90;;
23716;SDS011;22094;52.130;5.598;2024-03-23T14:58:27;10.02;;;2.25;;
23716;SDS011;22094;52.130;5.598;2024-03-23T15:00:59;8.02;;;2.35;;
23716;SDS011;22094;52.130;5.598;2024-03-23T15:03:25;7.60;;;2.33;;
23716;SDS011;22094;52.130;5.598;2024-03-23T15:05:52;10.25;;;2.70;;
23716;SDS011;22094;52.130;5.598;2024-03-23T15:08:21;5.65;;;1.50;;
23716;SDS011;22094;52.130;5.598;2024-03-23T15:10:47;8.90;;;1.88;;
23716;SDS011;22094;52.130;5.598;2024-03-23T15:13:13;6.15;;;1.95;;
23716;SDS011;22094;52.130;5.598;2024-03-23T15:15:42;8.45;;;2.45;;
23716;SDS011;22094;52.130;5.598;2024-03-23T15:18:13;5.68;;;1.55;;
23716;SDS011;22094;52.130;5.598;2024-03-23T15:20:40;5.25;;;1.40;;
23716;SDS011;22094;52.130;5.598;2024-03-23T15:23:06;4.10;;;1.60;;
23716;SDS011;22094;52.130;5.598;2024-03-23T15:25:31;6.18;;;1.60;;
23716;SDS011;22094;52.130;5.598;2024-03-23T15:27:57;8.07;;;1.80;;
23716;SDS011;22094;52.130;5.598;2024-03-23T15:30:24;6.65;;;1.92;;
23716;SDS011;22094;52.130;5.598;2024-03-23T15:32:50;6.30;;;2.03;;
23716;SDS011;22094;52.130;5.598;2024-03-23T15:35:15;8.18;;;2.22;;
23716;SDS011;22094;52.130;5.598;2024-03-23T15:37:41;6.30;;;1.88;;
23716;SDS011;22094;52.130;5.598;2024-03-23T15:40:06;5.28;;;1.70;;
23716;SDS011;22094;52.130;5.598;2024-03-23T15:42:35;4.03;;;1.60;;